createdAt,value
2019-05-09T00:00:17.716Z,14.20
2019-05-09T00:02:50.801Z,14.15
2019-05-09T00:05:25.252Z,14.08
2019-05-09T00:07:55.974Z,14.13
2019-05-09T00:10:38.378Z,14.03
2019-05-09T00:13:03.159Z,14.02
2019-05-09T00:15:34.516Z,13.95
2019-05-09T00:18:07.676Z,13.88
2019-05-09T00:20:40.989Z,13.76
2019-05-09T00:23:13.953Z,13.86
2019-05-09T00:25:47.110Z,13.93
2019-05-09T00:28:18.909Z,13.94
2019-05-09T00:30:59.058Z,13.97
2019-05-09T00:33:34.306Z,13.94
2019-05-09T00:36:06.443Z,13.92
2019-05-09T00:38:39.713Z,13.90
2019-05-09T00:41:13.773Z,13.91
2019-05-09T00:43:46.567Z,13.88
2019-05-09T00:46:23.644Z,13.89
2019-05-09T00:48:57.021Z,13.93
2019-05-09T00:51:28.891Z,13.92
2019-05-09T00:54:04.268Z,13.91
2019-05-09T00:56:38.851Z,13.88
2019-05-09T00:59:13.352Z,13.86
2019-05-09T01:01:44.839Z,13.86
2019-05-09T01:04:16.647Z,13.86
2019-05-09T01:06:48.390Z,13.78
2019-05-09T01:09:20.155Z,13.80
2019-05-09T01:11:53.388Z,13.80
2019-05-09T01:14:25.430Z,13.70
2019-05-09T01:16:57.162Z,13.62
2019-05-09T01:19:30.144Z,13.70
2019-05-09T01:22:03.711Z,13.71
2019-05-09T01:24:35.259Z,13.71
2019-05-09T01:27:07.112Z,13.60
2019-05-09T01:29:38.807Z,13.64
2019-05-09T01:32:17.816Z,13.65
2019-05-09T01:34:49.439Z,13.62
2019-05-09T01:37:23.609Z,13.55
2019-05-09T01:39:54.485Z,13.50
2019-05-09T01:42:26.294Z,13.44
2019-05-09T01:44:57.981Z,13.46
2019-05-09T01:47:29.723Z,13.38
2019-05-09T01:50:03.739Z,13.34
2019-05-09T01:52:34.707Z,13.39
2019-05-09T01:55:07.238Z,13.41
2019-05-09T01:57:38.955Z,13.41
2019-05-09T02:00:13.229Z,13.40
2019-05-09T02:02:48.436Z,13.31
2019-05-09T02:05:36.796Z,13.15
2019-05-09T02:08:20.825Z,13.10
2019-05-09T02:11:13.678Z,13.10
2019-05-09T02:14:06.817Z,13.06
2019-05-09T02:16:43.297Z,13.06
2019-05-09T02:19:19.738Z,13.08
2019-05-09T02:21:53.131Z,13.09
2019-05-09T02:24:25.153Z,13.12
2019-05-09T02:26:57.826Z,13.15
2019-05-09T02:29:29.569Z,13.17
2019-05-09T02:32:04.446Z,13.18
2019-05-09T02:34:35.806Z,13.20
2019-05-09T02:37:09.419Z,13.19
2019-05-09T02:39:42.868Z,13.19
2019-05-09T02:42:14.606Z,13.26
2019-05-09T02:44:49.251Z,13.23
2019-05-09T02:47:22.731Z,13.21
2019-05-09T02:49:54.572Z,13.15
2019-05-09T02:52:28.697Z,13.11
2019-05-09T02:54:59.602Z,13.08
2019-05-09T02:57:31.423Z,13.07
2019-05-09T03:00:08.660Z,13.07
2019-05-09T03:02:42.208Z,13.05
2019-05-09T03:05:13.851Z,13.04
2019-05-09T03:07:51.645Z,13.07
2019-05-09T03:10:23.684Z,13.10
2019-05-09T03:12:55.359Z,13.07
2019-05-09T03:15:29.131Z,13.08
2019-05-09T03:18:00.537Z,13.12
2019-05-09T03:20:39.717Z,13.15
2019-05-09T03:23:11.243Z,13.17
2019-05-09T03:25:43.291Z,13.20
2019-05-09T03:28:18.419Z,13.24
2019-05-09T03:30:51.726Z,13.26
2019-05-09T03:33:23.605Z,13.39
2019-05-09T03:35:57.416Z,13.39
2019-05-09T03:38:28.873Z,13.40
2019-05-09T03:41:01.668Z,13.40
2019-05-09T03:43:34.247Z,13.38
2019-05-09T03:46:10.809Z,13.40
2019-05-09T03:48:53.402Z,13.41
2019-05-09T03:51:33.915Z,13.38
2019-05-09T03:54:09.409Z,13.39
2019-05-09T03:56:47.900Z,13.37
2019-05-09T03:59:24.991Z,13.34
2019-05-09T04:01:59.133Z,13.37
2019-05-09T04:04:32.529Z,13.39
2019-05-09T04:07:08.895Z,13.37
2019-05-09T04:09:48.397Z,13.37
2019-05-09T04:12:22.583Z,13.40
2019-05-09T04:14:58.958Z,13.43
2019-05-09T04:17:33.240Z,13.61
2019-05-09T04:20:08.184Z,13.64
2019-05-09T04:22:43.636Z,13.65
2019-05-09T04:25:19.886Z,13.57
2019-05-09T04:27:53.851Z,13.55
2019-05-09T04:30:27.521Z,13.65
2019-05-09T04:33:01.220Z,13.60
2019-05-09T04:35:32.929Z,13.64
2019-05-09T04:38:04.801Z,13.62
2019-05-09T04:40:37.831Z,13.59
2019-05-09T04:43:16.873Z,13.60
2019-05-09T04:45:53.404Z,13.60
2019-05-09T04:48:34.185Z,13.64
2019-05-09T04:51:11.300Z,13.63
2019-05-09T04:53:48.096Z,13.66
2019-05-09T04:56:22.682Z,13.69
2019-05-09T04:58:54.489Z,13.71
2019-05-09T05:01:47.704Z,13.74
2019-05-09T05:04:21.458Z,13.77
2019-05-09T05:06:53.271Z,13.91
2019-05-09T05:09:25.059Z,13.85
2019-05-09T05:11:58.396Z,13.85
2019-05-09T05:14:38.245Z,13.87
2019-05-09T05:17:13.010Z,14.01
2019-05-09T05:19:47.657Z,14.09
2019-05-09T05:22:35.522Z,14.07
2019-05-09T05:25:10.338Z,14.11
2019-05-09T05:27:41.994Z,14.05
2019-05-09T05:30:18.204Z,14.02
2019-05-09T05:33:01.629Z,13.96
2019-05-09T05:35:48.068Z,13.92
2019-05-09T05:38:24.073Z,13.89
2019-05-09T05:40:57.803Z,13.99
2019-05-09T05:43:40.886Z,14.02
2019-05-09T05:46:20.073Z,13.94
2019-05-09T05:48:57.694Z,13.99
2019-05-09T05:51:30.538Z,13.96
2019-05-09T05:54:07.324Z,13.98
2019-05-09T05:56:39.611Z,13.97
2019-05-09T05:59:11.456Z,14.01
2019-05-09T06:01:44.790Z,14.03
2019-05-09T06:04:18.630Z,14.04
2019-05-09T06:06:53.608Z,14.18
2019-05-09T06:09:28.039Z,14.14
2019-05-09T06:12:03.310Z,14.15
2019-05-09T06:14:39.712Z,14.23
2019-05-09T06:17:12.592Z,14.26
2019-05-09T06:19:44.283Z,14.32
2019-05-09T06:22:23.626Z,14.36
2019-05-09T06:24:59.312Z,14.42
2019-05-09T06:27:37.562Z,14.46
2019-05-09T06:30:14.567Z,14.44
2019-05-09T06:32:49.644Z,14.41
2019-05-09T06:35:23.714Z,14.43
2019-05-09T06:37:58.770Z,14.46
2019-05-09T06:40:30.193Z,14.50
2019-05-09T06:43:03.645Z,14.49
2019-05-09T06:45:41.682Z,14.39
2019-05-09T06:48:15.210Z,14.40
2019-05-09T06:50:48.374Z,14.48
2019-05-09T06:53:24.508Z,14.51
2019-05-09T06:56:03.647Z,14.55
2019-05-09T06:58:38.401Z,14.67
2019-05-09T07:01:25.244Z,14.72
2019-05-09T07:04:15.595Z,14.77
2019-05-09T07:07:02.231Z,14.85
2019-05-09T07:09:40.559Z,14.77
2019-05-09T07:12:20.327Z,14.92
2019-05-09T07:15:02.349Z,14.88
2019-05-09T07:17:38.828Z,14.77
2019-05-09T07:20:24.025Z,14.65
2019-05-09T07:23:02.105Z,14.68
2019-05-09T07:25:37.683Z,14.49
2019-05-09T07:28:13.554Z,14.53
2019-05-09T07:31:00.259Z,14.56
2019-05-09T07:33:38.362Z,14.49
2019-05-09T07:36:10.704Z,14.35
2019-05-09T07:38:47.641Z,14.33
2019-05-09T07:41:19.481Z,14.33
2019-05-09T07:43:53.286Z,14.31
2019-05-09T07:46:30.166Z,14.38
2019-05-09T07:49:09.584Z,14.44
2019-05-09T07:51:44.086Z,14.63
2019-05-09T07:54:25.545Z,14.73
2019-05-09T07:56:59.689Z,14.80
2019-05-09T07:59:42.620Z,14.82
2019-05-09T08:02:17.682Z,14.86
2019-05-09T08:05:08.652Z,14.88
2019-05-09T08:07:48.450Z,14.96
2019-05-09T08:10:34.154Z,14.94
2019-05-09T08:13:13.314Z,15.01
2019-05-09T08:15:58.546Z,15.09
2019-05-09T08:18:43.976Z,15.22
2019-05-09T08:21:28.265Z,15.14
2019-05-09T08:24:10.281Z,15.25
2019-05-09T08:26:47.651Z,15.40
2019-05-09T08:29:28.230Z,15.57
2019-05-09T08:32:25.189Z,15.52
2019-05-09T08:35:18.265Z,15.71
2019-05-09T08:38:03.738Z,15.89
2019-05-09T08:40:41.368Z,15.96
2019-05-09T08:43:22.539Z,16.09
2019-05-09T08:46:07.896Z,16.11
2019-05-09T08:48:44.150Z,16.10
2019-05-09T08:51:18.045Z,16.24
2019-05-09T08:53:51.761Z,16.25
2019-05-09T08:56:23.492Z,16.08
2019-05-09T08:59:03.169Z,16.10
2019-05-09T09:02:11.355Z,16.33
2019-05-09T09:04:30.387Z,16.43
2019-05-09T09:07:03.093Z,16.39
2019-05-09T09:09:38.006Z,16.19
2019-05-09T09:12:25.854Z,16.15
2019-05-09T09:14:47.847Z,16.28
2019-05-09T09:17:19.464Z,16.07
2019-05-09T09:19:54.264Z,16.03
2019-05-09T09:22:37.850Z,15.89
2019-05-09T09:25:11.900Z,15.97
2019-05-09T09:27:51.290Z,15.82
2019-05-09T09:30:28.957Z,15.80
2019-05-09T09:33:17.451Z,15.86
2019-05-09T09:35:54.768Z,15.64
2019-05-09T09:38:28.976Z,15.63
2019-05-09T09:41:00.665Z,15.60
2019-05-09T09:43:32.955Z,15.54
2019-05-09T09:46:13.432Z,15.48
2019-05-09T09:48:42.771Z,15.43
2019-05-09T09:51:14.571Z,15.32
2019-05-09T09:53:48.934Z,15.27
2019-05-09T09:56:24.420Z,15.13
2019-05-09T09:59:01.956Z,15.00
2019-05-09T10:01:39.088Z,14.91
2019-05-09T10:04:22.837Z,14.80
2019-05-09T10:06:48.686Z,14.73
2019-05-09T10:09:24.460Z,14.66
2019-05-09T10:12:00.599Z,14.67
2019-05-09T10:14:32.680Z,14.71
2019-05-09T10:17:10.135Z,14.61
2019-05-09T10:20:00.559Z,14.60
2019-05-09T10:22:34.220Z,14.47
2019-05-09T10:25:07.822Z,14.36
2019-05-09T10:27:48.023Z,14.37
2019-05-09T10:30:23.829Z,14.32
2019-05-09T10:32:58.349Z,14.30
2019-05-09T10:35:30.274Z,14.35
2019-05-09T10:38:03.795Z,14.34
2019-05-09T10:40:40.296Z,14.39
2019-05-09T10:43:34.451Z,14.39
2019-05-09T10:46:01.408Z,14.38
2019-05-09T10:48:33.160Z,14.37
2019-05-09T10:51:06.392Z,14.33
2019-05-09T10:53:41.013Z,14.37
2019-05-09T10:56:13.740Z,14.42
2019-05-09T10:58:48.383Z,14.47
2019-05-09T11:01:23.644Z,14.58
2019-05-09T11:03:55.405Z,14.61
2019-05-09T11:06:29.141Z,14.67
2019-05-09T11:09:04.121Z,14.64
2019-05-09T11:11:37.906Z,14.61
2019-05-09T11:14:29.596Z,14.72
2019-05-09T11:16:54.257Z,14.73
2019-05-09T11:19:23.755Z,14.63
2019-05-09T11:21:58.722Z,14.61
2019-05-09T11:24:41.169Z,14.47
2019-05-09T11:27:08.547Z,14.50
2019-05-09T11:29:39.759Z,14.77
2019-05-09T11:32:17.752Z,14.94
2019-05-09T11:34:50.386Z,14.96
2019-05-09T11:37:24.085Z,14.77
2019-05-09T11:40:02.175Z,14.80
2019-05-09T11:42:34.220Z,14.81
2019-05-09T11:45:09.051Z,14.64
2019-05-09T11:47:46.182Z,14.44
2019-05-09T11:50:23.173Z,14.34
2019-05-09T11:52:59.743Z,14.29
2019-05-09T11:55:35.966Z,14.15
2019-05-09T11:58:09.833Z,14.17
2019-05-09T12:00:43.643Z,13.99
2019-05-09T12:03:18.878Z,13.90
2019-05-09T12:06:00.121Z,13.89
2019-05-09T12:08:34.551Z,13.98
2019-05-09T12:11:12.937Z,14.04
2019-05-09T12:13:48.661Z,14.01
2019-05-09T12:16:21.480Z,14.07
2019-05-09T12:19:03.729Z,13.99
2019-05-09T12:21:44.971Z,13.95
2019-05-09T12:24:23.191Z,13.91
2019-05-09T12:27:08.771Z,13.78
2019-05-09T12:29:43.534Z,13.68
2019-05-09T12:32:18.589Z,13.66
2019-05-09T12:34:51.540Z,13.78
2019-05-09T12:37:25.115Z,13.83
2019-05-09T12:39:58.720Z,13.71
2019-05-09T12:42:34.659Z,13.60
2019-05-09T12:45:08.452Z,13.50
2019-05-09T12:47:40.464Z,13.43
2019-05-09T12:50:12.714Z,13.49
2019-05-09T12:52:48.773Z,13.35
2019-05-09T12:55:23.694Z,13.34
2019-05-09T12:57:59.510Z,13.37
2019-05-09T13:00:38.412Z,13.44
2019-05-09T13:03:12.849Z,13.52
2019-05-09T13:05:52.153Z,13.60
2019-05-09T13:08:27.829Z,13.69
2019-05-09T13:11:02.435Z,13.72
2019-05-09T13:13:33.776Z,13.71
2019-05-09T13:16:13.971Z,13.68
2019-05-09T13:19:02.731Z,13.58
2019-05-09T13:21:38.947Z,13.52
2019-05-09T13:24:09.634Z,13.51
2019-05-09T13:26:43.083Z,13.55
2019-05-09T13:29:24.611Z,13.57
2019-05-09T13:31:58.396Z,13.64
2019-05-09T13:34:34.618Z,13.65
2019-05-09T13:37:09.138Z,13.72
2019-05-09T13:39:41.812Z,13.78
2019-05-09T13:42:14.849Z,13.82
2019-05-09T13:44:49.263Z,13.83
2019-05-09T13:47:20.920Z,13.86
2019-05-09T13:49:55.685Z,13.90
2019-05-09T13:52:33.269Z,13.98
2019-05-09T13:55:08.664Z,14.08
2019-05-09T13:57:41.239Z,14.15
2019-05-09T14:00:14.742Z,14.15
2019-05-09T14:02:48.785Z,14.04
2019-05-09T14:05:20.084Z,13.91
2019-05-09T14:07:55.274Z,13.82
2019-05-09T14:10:29.009Z,13.77
2019-05-09T14:13:09.735Z,13.69
2019-05-09T14:15:36.577Z,13.66
2019-05-09T14:18:12.104Z,13.62
2019-05-09T14:20:44.030Z,13.61
2019-05-09T14:23:15.661Z,13.58
2019-05-09T14:25:52.041Z,13.54
2019-05-09T14:28:23.504Z,13.50
2019-05-09T14:31:07.508Z,13.49
2019-05-09T14:33:38.988Z,13.52
2019-05-09T14:36:14.975Z,13.54
2019-05-09T14:38:48.438Z,13.59
2019-05-09T14:41:20.941Z,13.62
2019-05-09T14:43:56.397Z,13.62
2019-05-09T14:46:29.246Z,13.62
2019-05-09T14:49:04.521Z,13.63
2019-05-09T14:51:38.308Z,13.66
2019-05-09T14:54:13.849Z,13.66
2019-05-09T14:56:48.528Z,13.67
2019-05-09T14:59:28.397Z,13.65
2019-05-09T15:01:59.703Z,13.67
2019-05-09T15:04:35.780Z,13.66
2019-05-09T15:07:12.063Z,13.64
2019-05-09T15:09:54.079Z,13.65
2019-05-09T15:12:30.471Z,13.63
2019-05-09T15:15:07.590Z,13.62
2019-05-09T15:17:39.123Z,13.63
2019-05-09T15:20:11.223Z,13.63
2019-05-09T15:22:42.940Z,13.66
2019-05-09T15:25:19.057Z,13.67
2019-05-09T15:27:51.631Z,13.63
2019-05-09T15:30:24.542Z,13.64
2019-05-09T15:32:58.420Z,13.63
2019-05-09T15:35:31.960Z,13.61
2019-05-09T15:38:04.405Z,13.62
2019-05-09T15:40:41.300Z,13.61
2019-05-09T15:43:14.363Z,13.60
2019-05-09T15:45:48.091Z,13.61
2019-05-09T15:48:20.617Z,13.58
2019-05-09T15:50:52.630Z,13.56
2019-05-09T15:53:24.164Z,13.55
2019-05-09T15:55:55.727Z,13.56
2019-05-09T15:58:30.012Z,13.55
2019-05-09T16:01:03.417Z,13.54
2019-05-09T16:03:39.635Z,13.52
2019-05-09T16:06:11.482Z,13.48
2019-05-09T16:08:46.483Z,13.40
2019-05-09T16:11:20.898Z,13.32
2019-05-09T16:13:55.152Z,13.29
2019-05-09T16:16:28.787Z,13.20
2019-05-09T16:19:09.571Z,13.15
2019-05-09T16:21:42.994Z,13.07
2019-05-09T16:24:18.492Z,13.02
2019-05-09T16:26:49.392Z,12.95
2019-05-09T16:29:21.247Z,12.90
2019-05-09T16:31:55.191Z,12.85
2019-05-09T16:34:33.659Z,12.81
2019-05-09T16:37:07.643Z,12.79
2019-05-09T16:39:41.788Z,12.80
2019-05-09T16:42:14.507Z,12.81
2019-05-09T16:44:47.625Z,12.80
2019-05-09T16:47:21.767Z,12.78
2019-05-09T16:49:52.383Z,12.77
2019-05-09T16:52:25.106Z,12.75
2019-05-09T16:55:08.083Z,12.70
2019-05-09T16:57:42.352Z,12.60
2019-05-09T17:00:18.379Z,12.56
2019-05-09T17:02:52.365Z,12.52
2019-05-09T17:05:23.895Z,12.49
2019-05-09T17:07:58.025Z,12.47
2019-05-09T17:10:32.585Z,12.44
2019-05-09T17:13:04.451Z,12.40
2019-05-09T17:15:39.121Z,12.35
2019-05-09T17:18:11.439Z,12.32
2019-05-09T17:20:47.822Z,12.31
2019-05-09T17:23:29.271Z,12.31
2019-05-09T17:26:01.428Z,12.28
2019-05-09T17:28:40.117Z,12.23
2019-05-09T17:31:13.537Z,12.24
2019-05-09T17:33:57.968Z,12.23
2019-05-09T17:36:29.951Z,12.19
2019-05-09T17:39:02.840Z,12.23
2019-05-09T17:41:37.969Z,12.20
2019-05-09T17:44:09.710Z,12.20
2019-05-09T17:46:41.828Z,12.17
2019-05-09T17:49:14.204Z,12.13
2019-05-09T17:51:48.234Z,12.06
2019-05-09T17:54:20.142Z,12.00
2019-05-09T17:56:52.140Z,11.96
2019-05-09T17:59:29.322Z,11.94
2019-05-09T18:02:00.312Z,11.79
2019-05-09T18:04:32.119Z,11.80
2019-05-09T18:07:04.822Z,11.79
2019-05-09T18:09:37.179Z,11.75
2019-05-09T18:12:10.815Z,11.71
2019-05-09T18:14:43.657Z,11.65
2019-05-09T18:17:17.937Z,11.65
2019-05-09T18:19:53.540Z,11.67
2019-05-09T18:22:26.291Z,11.70
2019-05-09T18:25:03.563Z,11.69
2019-05-09T18:27:40.686Z,11.59
2019-05-09T18:30:13.894Z,11.59
2019-05-09T18:33:03.936Z,11.61
2019-05-09T18:35:37.883Z,11.65
2019-05-09T18:38:10.706Z,11.63
2019-05-09T18:40:43.664Z,11.63
2019-05-09T18:43:18.069Z,11.60
2019-05-09T18:45:52.831Z,11.60
2019-05-09T18:48:31.439Z,11.58
2019-05-09T18:51:07.176Z,11.59
2019-05-09T18:53:38.779Z,11.58
2019-05-09T18:56:11.644Z,11.58
2019-05-09T18:58:47.660Z,11.53
2019-05-09T19:01:22.931Z,11.53
2019-05-09T19:03:54.611Z,11.59
2019-05-09T19:06:29.672Z,11.56
2019-05-09T19:09:04.543Z,11.56
2019-05-09T19:11:36.805Z,11.56
2019-05-09T19:14:10.209Z,11.56
2019-05-09T19:16:45.461Z,11.53
2019-05-09T19:19:19.704Z,11.49
2019-05-09T19:21:53.008Z,11.45
2019-05-09T19:24:24.836Z,11.36
2019-05-09T19:26:58.628Z,11.36
2019-05-09T19:29:30.745Z,11.34
2019-05-09T19:32:03.510Z,11.30
2019-05-09T19:34:35.214Z,11.26
2019-05-09T19:37:08.903Z,11.22
2019-05-09T19:39:42.815Z,11.14
2019-05-09T19:42:17.516Z,10.97
2019-05-09T19:44:52.408Z,10.97
2019-05-09T19:47:26.662Z,10.91
2019-05-09T19:50:00.667Z,10.86
2019-05-09T19:52:38.415Z,10.80
2019-05-09T19:55:09.208Z,10.76
2019-05-09T19:57:41.125Z,10.72
2019-05-09T20:00:16.934Z,10.67
2019-05-09T20:02:48.754Z,10.59
2019-05-09T20:05:21.843Z,10.59
2019-05-09T20:07:57.160Z,10.63
2019-05-09T20:10:48.780Z,10.65
2019-05-09T20:13:22.078Z,10.67
2019-05-09T20:15:54.459Z,10.68
2019-05-09T20:18:26.193Z,10.71
2019-05-09T20:20:59.371Z,10.73
2019-05-09T20:23:30.923Z,10.72
2019-05-09T20:26:04.973Z,10.72
2019-05-09T20:28:38.185Z,10.71
2019-05-09T20:31:11.989Z,10.71
2019-05-09T20:33:43.909Z,10.69
2019-05-09T20:36:17.995Z,10.70
2019-05-09T20:38:54.335Z,10.67
2019-05-09T20:41:26.242Z,10.63
2019-05-09T20:43:58.259Z,10.62
2019-05-09T20:46:30.211Z,10.61
2019-05-09T20:49:02.114Z,10.65
2019-05-09T20:51:34.198Z,10.71
2019-05-09T20:54:20.030Z,10.72
2019-05-09T20:56:42.402Z,10.73
2019-05-09T20:59:14.346Z,10.73
2019-05-09T21:01:48.949Z,10.77
2019-05-09T21:04:20.892Z,10.80
2019-05-09T21:06:52.797Z,10.88
2019-05-09T21:09:24.684Z,10.92
2019-05-09T21:11:56.469Z,10.94
2019-05-09T21:14:28.437Z,11.00
2019-05-09T21:17:00.364Z,11.00
2019-05-09T21:19:36.837Z,11.03
2019-05-09T21:22:13.248Z,11.00
2019-05-09T21:24:48.591Z,10.98
2019-05-09T21:27:20.557Z,10.96
2019-05-09T21:29:52.945Z,10.98
2019-05-09T21:32:25.971Z,11.00
2019-05-09T21:34:57.624Z,11.00
2019-05-09T21:37:30.850Z,11.01
2019-05-09T21:40:06.829Z,11.02
2019-05-09T21:42:38.528Z,11.02
2019-05-09T21:45:10.519Z,11.04
2019-05-09T21:47:43.642Z,11.09
2019-05-09T21:50:15.779Z,11.07
2019-05-09T21:52:47.483Z,11.07
2019-05-09T21:55:19.283Z,11.07
2019-05-09T21:57:50.962Z,11.10
2019-05-09T22:00:27.276Z,11.11
2019-05-09T22:03:00.833Z,11.07
2019-05-09T22:05:32.556Z,11.09
2019-05-09T22:08:04.732Z,11.04
2019-05-09T22:10:36.407Z,11.01
2019-05-09T22:13:08.060Z,10.95
2019-05-09T22:15:39.907Z,10.91
2019-05-09T22:18:11.529Z,10.88
2019-05-09T22:20:45.461Z,10.80
2019-05-09T22:23:17.355Z,10.80
2019-05-09T22:25:49.084Z,10.77
2019-05-09T22:28:20.703Z,10.76
2019-05-09T22:30:52.412Z,10.76
2019-05-09T22:33:24.368Z,10.73
2019-05-09T22:35:56.017Z,10.75
2019-05-09T22:38:27.751Z,10.77
2019-05-09T22:40:59.486Z,10.76
2019-05-09T22:43:31.357Z,10.78
2019-05-09T22:46:05.957Z,10.80
2019-05-09T22:48:37.766Z,10.84
2019-05-09T22:51:09.550Z,10.85
2019-05-09T22:53:50.099Z,10.87
2019-05-09T22:56:22.562Z,10.88
2019-05-09T22:58:54.359Z,10.87
2019-05-09T23:01:26.189Z,10.86
2019-05-09T23:03:57.886Z,10.84
2019-05-09T23:06:33.996Z,10.82
2019-05-09T23:09:07.205Z,10.82
2019-05-09T23:11:38.902Z,10.80
2019-05-09T23:14:10.564Z,10.79
2019-05-09T23:16:42.353Z,10.77
2019-05-09T23:19:14.043Z,10.77
2019-05-09T23:21:45.920Z,10.76
2019-05-09T23:24:28.440Z,10.75
2019-05-09T23:26:55.530Z,10.73
2019-05-09T23:29:27.251Z,10.67
2019-05-09T23:32:12.418Z,10.68
2019-05-09T23:34:44.257Z,10.64
2019-05-09T23:37:16.152Z,10.64
2019-05-09T23:39:49.404Z,10.66
2019-05-09T23:42:21.099Z,10.64
2019-05-09T23:44:52.840Z,10.63
2019-05-09T23:47:24.569Z,10.61
2019-05-09T23:49:56.173Z,10.57
2019-05-09T23:52:30.081Z,10.56
2019-05-09T23:55:19.751Z,10.53
2019-05-09T23:58:09.508Z,10.53
